Impacts TAF Board INFO
FOR SITUATIONAL AWARENESS. NOT TO BE USED FOR FLIGHT PLANNING PURPOSES.
IDs:

KTPA - Tampa Intl Arpt, FL, US

Issued at 1139 UTC 19 Jun 2018
Updated at 1235 UTC 19 Jun 2018
Potential Impact None Slight Moderate High
Time<<20/13Z 20/14Z 20/15Z 20/16Z 20/17Z 20/18Z 20/19Z 20/20Z 20/21Z 20/22Z 20/23Z 21/00Z 21/01Z
Type PRVL PRVL PRVL PRVL PRVL
VIS >6 >6 >6 >6 >6
CIG -- -- -- -- --
Cover SCT SCT SCT SCT SCT
FltCat VFR VFR VFR VFR VFR
WX -- -- -- -- --
WDir VRB VRB 230 230 230
WSpd 3 3 6 6 6
WGst -- -- -- -- --

Raw TAF
KTPA 191139Z 1912/2018 14004KT P6SM SCT250
  FM191500 22006KT P6SM SCT035 SCT250
  FM191800 25007KT P6SM VCSH BKN040
  FM192200 28008KT P6SM BKN050
  FM200000 31005KT P6SM SCT050 SCT250
  FM200300 VRB03KT P6SM SCT250
  FM201500 23006KT P6SM SCT035 SCT250


METAR Board
Radar Display
Forecast Discussion

FOR SITUATIONAL AWARENESS. NOT TO BE USED FOR FLIGHT PLANNING PURPOSES.